createdAt,value
2022-12-04T00:00:58.010Z,1.43
2022-12-04T00:01:58.037Z,1.44
2022-12-04T00:02:58.980Z,1.39
2022-12-04T00:03:58.095Z,1.44
2022-12-04T00:04:58.205Z,1.44
2022-12-04T00:05:58.210Z,1.42
2022-12-04T00:06:59.125Z,1.43
2022-12-04T00:07:58.338Z,1.40
2022-12-04T00:08:58.305Z,1.34
2022-12-04T00:09:58.351Z,1.44
2022-12-04T00:10:58.405Z,1.47
2022-12-04T00:11:58.448Z,1.46
2022-12-04T00:12:58.452Z,1.44
2022-12-04T00:14:04.595Z,1.54
2022-12-04T00:15:24.723Z,1.47
2022-12-04T00:15:58.674Z,1.51
2022-12-04T00:16:58.641Z,1.54
2022-12-04T00:17:58.682Z,1.44
2022-12-04T00:18:58.690Z,1.43
2022-12-04T00:19:58.764Z,1.54
2022-12-04T00:20:58.769Z,1.44
2022-12-04T00:21:59.420Z,1.46
2022-12-04T00:22:58.859Z,1.44
2022-12-04T00:23:58.888Z,1.47
2022-12-04T00:24:58.946Z,1.47
2022-12-04T00:25:58.977Z,1.47
2022-12-04T00:26:59.036Z,1.47
2022-12-04T00:27:59.046Z,1.50
2022-12-04T00:28:59.089Z,1.51
2022-12-04T00:29:59.128Z,1.54
2022-12-04T00:30:59.165Z,1.51
2022-12-04T00:31:59.358Z,1.52
2022-12-04T00:32:59.253Z,1.50
2022-12-04T00:34:00.379Z,1.50
2022-12-04T00:34:59.322Z,1.50
2022-12-04T00:35:59.392Z,1.62
2022-12-04T00:36:59.407Z,1.52
2022-12-04T00:37:59.449Z,1.57
2022-12-04T00:38:59.508Z,1.64
2022-12-04T00:39:59.521Z,1.58
2022-12-04T00:40:59.567Z,1.62
2022-12-04T00:42:00.416Z,1.54
2022-12-04T00:42:59.639Z,1.61
2022-12-04T00:43:59.701Z,1.65
2022-12-04T00:44:59.715Z,1.57
2022-12-04T00:45:59.813Z,1.50
2022-12-04T00:46:59.821Z,1.52
2022-12-04T00:47:59.834Z,1.55
2022-12-04T00:48:59.883Z,1.52
2022-12-04T00:49:59.924Z,1.68
2022-12-04T00:50:59.960Z,1.69
2022-12-04T00:52:00.031Z,1.69
2022-12-04T00:53:00.039Z,1.65
2022-12-04T00:54:00.087Z,1.61
2022-12-04T00:55:00.133Z,1.62
2022-12-04T00:56:00.149Z,1.65
2022-12-04T00:57:00.200Z,1.68
2022-12-04T00:58:00.362Z,1.69
2022-12-04T00:59:00.294Z,1.68
2022-12-04T01:00:00.319Z,1.72
2022-12-04T01:01:00.961Z,1.76
2022-12-04T01:02:00.424Z,1.68
2022-12-04T01:03:00.524Z,1.69
2022-12-04T01:04:00.500Z,1.75
2022-12-04T01:05:00.516Z,1.78
2022-12-04T01:06:00.557Z,1.75
2022-12-04T01:07:04.984Z,1.79
2022-12-04T01:08:00.682Z,1.79
2022-12-04T01:09:00.690Z,1.85
2022-12-04T01:10:00.707Z,1.91
2022-12-04T01:11:01.424Z,1.91
2022-12-04T01:12:00.786Z,1.94
2022-12-04T01:13:00.826Z,1.97
2022-12-04T01:14:00.889Z,1.94
2022-12-04T01:15:00.913Z,1.94
2022-12-04T01:16:00.973Z,1.94
2022-12-04T01:17:01.078Z,1.93
2022-12-04T01:18:01.029Z,1.93
2022-12-04T01:19:01.067Z,1.99
2022-12-04T01:20:01.117Z,1.99
2022-12-04T01:21:01.142Z,2.08
2022-12-04T01:22:01.215Z,2.02
2022-12-04T01:23:01.224Z,2.09
2022-12-04T01:24:01.272Z,2.13
2022-12-04T01:25:01.346Z,2.19
2022-12-04T01:26:01.343Z,2.17
2022-12-04T01:27:01.386Z,2.16
2022-12-04T01:28:01.428Z,2.22
2022-12-04T01:29:01.473Z,2.19
2022-12-04T01:30:01.544Z,2.27
2022-12-04T01:31:02.423Z,2.27
2022-12-04T01:32:01.650Z,2.23
2022-12-04T01:33:01.631Z,2.27
2022-12-04T01:34:01.678Z,2.30
2022-12-04T01:35:01.739Z,2.35
2022-12-04T01:36:01.742Z,2.40
2022-12-04T01:37:01.783Z,2.53
2022-12-04T01:38:01.861Z,2.45
2022-12-04T01:39:01.872Z,2.40
2022-12-04T01:40:01.903Z,2.49
2022-12-04T01:41:02.919Z,2.49
2022-12-04T01:42:02.014Z,2.49
2022-12-04T01:43:02.025Z,2.48
2022-12-04T01:44:02.072Z,2.48
2022-12-04T01:45:02.104Z,2.49
2022-12-04T01:46:02.207Z,2.49
2022-12-04T01:47:02.221Z,2.49
2022-12-04T01:48:02.229Z,2.45
2022-12-04T01:49:02.272Z,2.52
2022-12-04T01:50:02.312Z,2.64
2022-12-04T01:51:02.346Z,2.61
2022-12-04T01:52:02.424Z,2.59
2022-12-04T01:53:02.434Z,2.56
2022-12-04T01:54:02.477Z,2.53
2022-12-04T01:55:02.512Z,2.61
2022-12-04T01:56:02.555Z,2.61
2022-12-04T01:57:02.617Z,2.63
2022-12-04T01:58:02.669Z,2.61
2022-12-04T01:59:02.670Z,2.66
2022-12-04T02:00:03.423Z,2.64
2022-12-04T02:01:08.232Z,2.63
2022-12-04T02:02:02.906Z,2.56
2022-12-04T02:03:02.941Z,2.63
2022-12-04T02:04:02.878Z,2.71
2022-12-04T02:05:02.920Z,2.61
2022-12-04T02:06:02.949Z,2.71
2022-12-04T02:07:02.999Z,2.64
2022-12-04T02:08:03.091Z,2.69
2022-12-04T02:09:03.106Z,2.63
2022-12-04T02:10:03.110Z,2.64
2022-12-04T02:11:03.151Z,2.70
2022-12-04T02:12:03.200Z,2.66
2022-12-04T02:13:03.241Z,2.79
2022-12-04T02:14:03.294Z,2.71
2022-12-04T02:15:03.322Z,2.76
2022-12-04T02:16:03.358Z,2.70
2022-12-04T02:17:03.493Z,2.76
2022-12-04T02:18:03.469Z,2.74
2022-12-04T02:19:03.477Z,2.69
2022-12-04T02:20:03.527Z,2.71
2022-12-04T02:21:03.582Z,2.73
2022-12-04T02:22:03.605Z,2.71
2022-12-04T02:23:03.639Z,2.79
2022-12-04T02:24:03.690Z,2.81
2022-12-04T02:25:03.725Z,2.81
2022-12-04T02:26:03.790Z,2.77
2022-12-04T02:27:03.833Z,2.79
2022-12-04T02:28:03.848Z,2.79
2022-12-04T02:29:03.881Z,2.77
2022-12-04T02:30:03.929Z,2.87
2022-12-04T02:31:03.986Z,2.84
2022-12-04T02:32:04.031Z,2.87
2022-12-04T02:33:04.043Z,2.85
2022-12-04T02:34:04.093Z,2.85
2022-12-04T02:35:04.134Z,2.87
2022-12-04T02:36:04.170Z,2.84
2022-12-04T02:37:04.227Z,2.89
2022-12-04T02:38:04.263Z,2.88
2022-12-04T02:39:04.930Z,2.91
2022-12-04T02:40:04.346Z,2.85
2022-12-04T02:41:04.376Z,2.88
2022-12-04T02:42:04.444Z,2.84
2022-12-04T02:43:04.445Z,2.89
2022-12-04T02:44:04.486Z,2.94
2022-12-04T02:45:04.531Z,2.91
2022-12-04T02:46:04.638Z,2.89
2022-12-04T02:47:04.634Z,2.94
2022-12-04T02:48:04.652Z,2.97
2022-12-04T02:49:05.431Z,2.92
2022-12-04T02:50:04.766Z,2.97
2022-12-04T02:51:04.779Z,2.97
2022-12-04T02:52:04.813Z,2.92
2022-12-04T02:53:04.851Z,2.89
2022-12-04T02:54:05.126Z,2.92
2022-12-04T02:55:08.339Z,2.94
2022-12-04T02:56:04.976Z,2.92
2022-12-04T02:57:05.055Z,2.92
2022-12-04T02:58:05.065Z,2.87
2022-12-04T02:59:05.099Z,2.97
2022-12-04T03:00:05.174Z,2.95
2022-12-04T03:01:05.194Z,2.95
2022-12-04T03:02:05.277Z,2.91
2022-12-04T03:03:05.266Z,3.02
2022-12-04T03:04:05.301Z,2.98
2022-12-04T03:05:05.370Z,2.94
2022-12-04T03:06:05.391Z,2.95
2022-12-04T03:07:05.929Z,2.94
2022-12-04T03:08:05.580Z,2.92
2022-12-04T03:09:05.511Z,3.00
2022-12-04T03:10:05.577Z,2.97
2022-12-04T03:11:06.422Z,3.00
2022-12-04T03:12:05.638Z,3.00
2022-12-04T03:13:05.674Z,3.00
2022-12-04T03:14:05.706Z,2.97
2022-12-04T03:15:05.785Z,2.95
2022-12-04T03:16:06.421Z,3.02
2022-12-04T03:17:05.901Z,2.95
2022-12-04T03:18:05.882Z,3.05
2022-12-04T03:19:05.922Z,2.97
2022-12-04T03:20:05.986Z,3.05
2022-12-04T03:21:06.010Z,2.91
2022-12-04T03:22:06.034Z,2.95
2022-12-04T03:23:06.087Z,2.98
2022-12-04T03:24:06.147Z,2.92
2022-12-04T03:25:06.934Z,3.00
2022-12-04T03:26:06.209Z,3.03
2022-12-04T03:27:06.246Z,2.98
2022-12-04T03:28:06.311Z,3.02
2022-12-04T03:29:06.322Z,3.00
2022-12-04T03:30:06.364Z,2.98
2022-12-04T03:31:06.499Z,2.98
2022-12-04T03:32:06.448Z,2.97
2022-12-04T03:33:06.519Z,2.95
2022-12-04T03:34:07.429Z,2.95
2022-12-04T03:35:06.591Z,2.97
2022-12-04T03:36:06.605Z,2.98
2022-12-04T03:37:06.661Z,2.95
2022-12-04T03:38:06.695Z,2.98
2022-12-04T03:39:06.730Z,3.00
2022-12-04T03:40:06.808Z,3.09
2022-12-04T03:41:06.810Z,3.10
2022-12-04T03:42:06.881Z,3.16
2022-12-04T03:43:06.892Z,3.10
2022-12-04T03:44:06.932Z,3.10
2022-12-04T03:45:07.005Z,3.15
2022-12-04T03:46:07.095Z,3.15
2022-12-04T03:47:07.082Z,3.12
2022-12-04T03:48:07.104Z,3.09
2022-12-04T03:49:07.143Z,3.12
2022-12-04T03:50:07.212Z,3.12
2022-12-04T03:51:07.219Z,3.16
2022-12-04T03:52:07.265Z,3.07
2022-12-04T03:53:07.300Z,3.10
2022-12-04T03:54:07.345Z,3.07
2022-12-04T03:55:07.414Z,3.12
2022-12-04T03:56:07.422Z,3.10
2022-12-04T03:57:07.463Z,3.16
2022-12-04T03:58:07.510Z,3.10
2022-12-04T03:59:07.582Z,3.07
2022-12-04T04:00:07.590Z,3.10
2022-12-04T04:01:08.480Z,3.07
2022-12-04T04:02:07.805Z,3.15
2022-12-04T04:03:07.863Z,3.13
2022-12-04T04:04:07.765Z,3.12
2022-12-04T04:05:07.829Z,3.13
2022-12-04T04:06:07.835Z,3.12
2022-12-04T04:07:07.872Z,3.13
2022-12-04T04:08:07.994Z,3.09
2022-12-04T04:09:07.958Z,3.03
2022-12-04T04:10:08.023Z,3.00
2022-12-04T04:11:08.041Z,3.03
2022-12-04T04:12:08.087Z,3.00
2022-12-04T04:13:08.128Z,3.00
2022-12-04T04:14:08.166Z,2.98
2022-12-04T04:15:08.226Z,2.94
2022-12-04T04:16:08.274Z,2.98
2022-12-04T04:17:08.289Z,3.03
2022-12-04T04:18:08.321Z,3.02
2022-12-04T04:19:08.371Z,3.00
2022-12-04T04:20:08.445Z,3.00
2022-12-04T04:21:08.483Z,3.05
2022-12-04T04:22:08.486Z,3.00
2022-12-04T04:23:08.533Z,2.98
2022-12-04T04:24:08.573Z,3.02
2022-12-04T04:25:08.616Z,3.00
2022-12-04T04:26:08.680Z,3.03
2022-12-04T04:27:08.717Z,3.00
2022-12-04T04:28:08.736Z,3.09
2022-12-04T04:29:08.770Z,3.02
2022-12-04T04:30:08.824Z,2.97
2022-12-04T04:31:08.898Z,3.05
2022-12-04T04:32:08.915Z,3.12
2022-12-04T04:33:08.933Z,3.02
2022-12-04T04:34:08.982Z,3.12
2022-12-04T04:35:09.023Z,3.10
2022-12-04T04:36:09.065Z,3.15
2022-12-04T04:37:09.130Z,3.03
2022-12-04T04:38:09.146Z,3.16
2022-12-04T04:39:09.178Z,3.15
2022-12-04T04:40:09.229Z,3.13
2022-12-04T04:41:09.260Z,3.13
2022-12-04T04:42:09.322Z,3.15
2022-12-04T04:43:09.377Z,3.13
2022-12-04T04:44:09.418Z,3.07
2022-12-04T04:45:09.435Z,3.12
2022-12-04T04:46:09.580Z,3.09
2022-12-04T04:47:09.503Z,3.06
2022-12-04T04:48:09.561Z,3.02
2022-12-04T04:49:09.617Z,3.10
2022-12-04T04:50:09.627Z,3.15
2022-12-04T04:51:09.677Z,3.15
2022-12-04T04:52:09.717Z,3.18
2022-12-04T04:53:09.759Z,3.10
2022-12-04T04:54:09.822Z,3.12
2022-12-04T04:55:09.849Z,3.12
2022-12-04T04:56:09.873Z,3.10
2022-12-04T04:57:09.921Z,3.13
2022-12-04T04:58:09.953Z,3.10
2022-12-04T04:59:10.028Z,3.13
2022-12-04T05:00:10.036Z,3.06
2022-12-04T05:01:10.083Z,3.03
2022-12-04T05:02:10.153Z,3.10
2022-12-04T05:03:10.331Z,3.03
2022-12-04T05:04:10.236Z,3.02
2022-12-04T05:05:10.248Z,3.02
2022-12-04T05:06:10.291Z,3.07
2022-12-04T05:07:10.334Z,3.05
2022-12-04T05:08:10.431Z,3.02
2022-12-04T05:09:10.411Z,3.00
2022-12-04T05:10:10.443Z,3.00
2022-12-04T05:11:10.518Z,2.97
2022-12-04T05:12:10.535Z,2.97
2022-12-04T05:13:10.567Z,2.97
2022-12-04T05:14:10.610Z,3.00
2022-12-04T05:15:10.672Z,2.98
2022-12-04T05:16:10.779Z,3.00
2022-12-04T05:17:12.720Z,2.97
2022-12-04T05:18:10.782Z,3.03
2022-12-04T05:19:10.848Z,2.98
2022-12-04T05:20:10.860Z,3.05
2022-12-04T05:21:10.924Z,2.94
2022-12-04T05:22:10.932Z,3.03
2022-12-04T05:23:10.983Z,3.00
2022-12-04T05:24:11.014Z,2.92
2022-12-04T05:25:11.093Z,2.95
2022-12-04T05:26:11.098Z,2.98
2022-12-04T05:27:11.163Z,3.05
2022-12-04T05:28:11.187Z,3.02
2022-12-04T05:29:11.219Z,2.98
2022-12-04T05:30:11.270Z,3.03
2022-12-04T05:31:11.376Z,3.05
2022-12-04T05:32:11.348Z,2.97
2022-12-04T05:33:11.392Z,3.03
2022-12-04T05:34:11.445Z,3.03
2022-12-04T05:35:11.870Z,3.03
2022-12-04T05:36:11.503Z,2.98
2022-12-04T05:37:12.438Z,3.05
2022-12-04T05:38:11.595Z,3.02
2022-12-04T05:39:11.625Z,3.10
2022-12-04T05:40:11.690Z,3.06
2022-12-04T05:41:11.708Z,3.05
2022-12-04T05:42:11.754Z,3.12
2022-12-04T05:43:11.801Z,3.13
2022-12-04T05:44:11.853Z,3.10
2022-12-04T05:45:11.878Z,3.13
2022-12-04T05:46:11.953Z,3.16
2022-12-04T05:47:11.987Z,3.12
2022-12-04T05:48:12.002Z,3.12
2022-12-04T05:49:12.037Z,3.12
2022-12-04T05:50:12.089Z,3.06
2022-12-04T05:51:12.118Z,3.09
2022-12-04T05:52:12.183Z,3.16
2022-12-04T05:53:12.206Z,3.15
2022-12-04T05:54:12.265Z,3.21
2022-12-04T05:55:12.281Z,3.12
2022-12-04T05:56:12.349Z,3.10
2022-12-04T05:57:12.371Z,3.23
2022-12-04T05:58:12.418Z,3.20
2022-12-04T05:59:12.451Z,3.16
2022-12-04T06:00:13.429Z,3.20
2022-12-04T06:01:12.566Z,3.16
2022-12-04T06:02:12.708Z,3.21
2022-12-04T06:03:12.655Z,3.20
2022-12-04T06:04:12.650Z,3.23
2022-12-04T06:05:12.713Z,3.16
2022-12-04T06:06:17.518Z,3.25
2022-12-04T06:07:12.773Z,3.28
2022-12-04T06:08:12.897Z,3.28
2022-12-04T06:09:12.852Z,3.24
2022-12-04T06:10:12.915Z,3.27
2022-12-04T06:11:12.944Z,3.30
2022-12-04T06:12:13.002Z,3.25
2022-12-04T06:13:13.017Z,3.27
2022-12-04T06:14:13.067Z,3.28
2022-12-04T06:15:13.124Z,3.27
2022-12-04T06:16:13.171Z,3.33
2022-12-04T06:17:13.187Z,3.27
2022-12-04T06:18:13.219Z,3.36
2022-12-04T06:19:13.269Z,3.30
2022-12-04T06:20:13.425Z,3.36
2022-12-04T06:21:13.344Z,3.40
2022-12-04T06:22:13.383Z,3.34
2022-12-04T06:23:13.434Z,3.31
2022-12-04T06:24:13.471Z,3.33
2022-12-04T06:25:13.535Z,3.39
2022-12-04T06:26:13.550Z,3.34
2022-12-04T06:27:29.120Z,3.34
2022-12-04T06:28:13.630Z,3.33
2022-12-04T06:29:13.679Z,3.43
2022-12-04T06:30:13.722Z,3.31
2022-12-04T06:31:13.848Z,3.33
2022-12-04T06:32:19.517Z,3.42
2022-12-04T06:33:13.844Z,3.33
2022-12-04T06:34:13.875Z,3.44
2022-12-04T06:35:14.437Z,3.33
2022-12-04T06:36:13.956Z,3.34
2022-12-04T06:37:14.034Z,3.42
2022-12-04T06:38:14.043Z,3.39
2022-12-04T06:39:18.513Z,3.33
2022-12-04T06:40:14.122Z,3.31
2022-12-04T06:41:14.933Z,3.34
2022-12-04T06:42:14.226Z,3.28
2022-12-04T06:43:14.249Z,3.36
2022-12-04T06:44:14.356Z,3.31
2022-12-04T06:45:14.335Z,3.36
2022-12-04T06:46:14.403Z,3.39
2022-12-04T06:47:14.419Z,3.36
2022-12-04T06:48:14.455Z,3.31
2022-12-04T06:49:14.547Z,3.31
2022-12-04T06:50:14.531Z,3.39
2022-12-04T06:51:14.605Z,3.40
2022-12-04T06:52:15.444Z,3.43
2022-12-04T06:53:14.659Z,3.30
2022-12-04T06:54:14.705Z,3.39
2022-12-04T06:55:14.768Z,3.34
2022-12-04T06:56:14.809Z,3.43
2022-12-04T06:57:14.821Z,3.33
2022-12-04T06:58:14.874Z,3.43
2022-12-04T06:59:14.909Z,3.34
2022-12-04T07:00:14.995Z,3.36
2022-12-04T07:01:15.010Z,3.36
2022-12-04T07:02:15.072Z,3.42
2022-12-04T07:03:15.064Z,3.50
2022-12-04T07:04:15.942Z,3.49
2022-12-04T07:05:15.179Z,3.44
2022-12-04T07:06:15.194Z,3.44
2022-12-04T07:07:15.232Z,3.36
2022-12-04T07:08:15.303Z,3.40
2022-12-04T07:09:15.952Z,3.40
2022-12-04T07:10:15.376Z,3.39
2022-12-04T07:11:15.413Z,3.30
2022-12-04T07:12:15.464Z,3.25
2022-12-04T07:13:15.476Z,3.25
2022-12-04T07:14:15.532Z,3.28
2022-12-04T07:15:15.560Z,3.24
2022-12-04T07:16:15.660Z,3.31
2022-12-04T07:17:15.735Z,3.30
2022-12-04T07:18:15.695Z,3.28
2022-12-04T07:19:15.741Z,3.30
2022-12-04T07:20:15.770Z,3.28
2022-12-04T07:21:16.440Z,3.23
2022-12-04T07:22:15.881Z,3.27
2022-12-04T07:23:15.898Z,3.23
2022-12-04T07:24:15.931Z,3.10
2022-12-04T07:25:15.987Z,3.16
2022-12-04T07:26:16.016Z,3.10
2022-12-04T07:27:16.087Z,3.16
2022-12-04T07:28:16.104Z,3.12
2022-12-04T07:29:16.147Z,3.13
2022-12-04T07:30:16.301Z,3.07
2022-12-04T07:31:16.232Z,3.07
2022-12-04T07:32:16.358Z,3.15
2022-12-04T07:33:16.942Z,3.09
2022-12-04T07:34:16.343Z,3.10
2022-12-04T07:35:16.423Z,3.07
2022-12-04T07:36:16.437Z,3.13
2022-12-04T07:37:16.469Z,3.12
2022-12-04T07:38:16.513Z,3.10
2022-12-04T07:39:16.551Z,3.13
2022-12-04T07:40:16.606Z,3.09
2022-12-04T07:41:16.634Z,3.06
2022-12-04T07:42:22.552Z,3.12
2022-12-04T07:43:16.723Z,3.12
2022-12-04T07:44:16.757Z,3.03
2022-12-04T07:45:16.791Z,3.00
2022-12-04T07:46:16.918Z,3.02
2022-12-04T07:47:16.905Z,3.10
2022-12-04T07:48:16.929Z,3.12
2022-12-04T07:49:16.959Z,3.13
2022-12-04T07:50:17.011Z,3.12
2022-12-04T07:51:17.034Z,3.15
2022-12-04T07:52:17.111Z,3.15
2022-12-04T07:53:17.126Z,2.97
2022-12-04T07:54:17.190Z,3.10
2022-12-04T07:55:22.811Z,3.06
2022-12-04T07:56:17.249Z,3.03
2022-12-04T07:57:17.284Z,3.09
2022-12-04T07:58:17.318Z,3.10
2022-12-04T07:59:17.392Z,3.05
2022-12-04T08:00:17.410Z,3.00
2022-12-04T08:01:17.528Z,3.02
2022-12-04T08:02:18.443Z,3.02
2022-12-04T08:03:17.529Z,3.09
2022-12-04T08:04:17.621Z,3.02
2022-12-04T08:05:17.610Z,3.07
2022-12-04T08:06:17.661Z,3.12
2022-12-04T08:07:17.690Z,3.10
2022-12-04T08:08:18.550Z,3.07
2022-12-04T08:09:17.796Z,3.00
2022-12-04T08:10:17.806Z,3.15
2022-12-04T08:11:17.857Z,3.03
2022-12-04T08:12:17.920Z,3.00
2022-12-04T08:13:17.930Z,3.02
2022-12-04T08:14:17.981Z,3.03
2022-12-04T08:15:18.011Z,2.98
2022-12-04T08:16:18.113Z,3.02
2022-12-04T08:17:18.154Z,2.97
2022-12-04T08:18:18.155Z,3.02
2022-12-04T08:19:18.179Z,3.03
2022-12-04T08:20:18.251Z,3.07
2022-12-04T08:21:18.257Z,2.98
2022-12-04T08:22:23.439Z,3.03
2022-12-04T08:23:18.347Z,3.05
2022-12-04T08:24:18.377Z,3.05
2022-12-04T08:25:18.458Z,3.09
2022-12-04T08:26:18.466Z,3.00
2022-12-04T08:27:18.510Z,3.13
2022-12-04T08:28:18.542Z,3.12
2022-12-04T08:29:18.588Z,3.16
2022-12-04T08:30:18.657Z,3.16
2022-12-04T08:31:19.608Z,3.10
2022-12-04T08:32:18.708Z,3.18
2022-12-04T08:33:18.753Z,3.09
2022-12-04T08:34:18.784Z,3.10
2022-12-04T08:35:18.860Z,3.18
2022-12-04T08:36:18.874Z,3.15
2022-12-04T08:37:19.449Z,3.10
2022-12-04T08:38:18.950Z,3.18
2022-12-04T08:39:18.991Z,3.18
2022-12-04T08:40:19.064Z,3.20
2022-12-04T08:41:20.134Z,3.18
2022-12-04T08:42:19.117Z,3.20
2022-12-04T08:43:19.947Z,3.20
2022-12-04T08:44:19.199Z,3.16
2022-12-04T08:45:19.260Z,3.12
2022-12-04T08:46:19.309Z,3.15
2022-12-04T08:47:19.320Z,3.15
2022-12-04T08:48:19.362Z,3.09
2022-12-04T08:49:19.569Z,3.12
2022-12-04T08:50:19.446Z,3.20
2022-12-04T08:51:19.497Z,3.20
2022-12-04T08:52:19.572Z,3.21
2022-12-04T08:53:19.573Z,3.21
2022-12-04T08:54:19.611Z,3.25
2022-12-04T08:55:19.669Z,3.23
2022-12-04T08:56:19.691Z,3.21
2022-12-04T08:57:19.733Z,3.31
2022-12-04T08:58:20.449Z,3.33
2022-12-04T08:59:19.844Z,3.28
2022-12-04T09:00:19.858Z,3.28
2022-12-04T09:01:19.964Z,3.39
2022-12-04T09:02:19.933Z,3.34
2022-12-04T09:03:21.057Z,3.33
2022-12-04T09:04:20.123Z,3.30
2022-12-04T09:05:20.054Z,3.33
2022-12-04T09:06:20.949Z,3.33
2022-12-04T09:07:20.133Z,3.27
2022-12-04T09:08:20.208Z,3.31
2022-12-04T09:09:20.244Z,3.36
2022-12-04T09:10:20.268Z,3.34
2022-12-04T09:11:20.305Z,3.34
2022-12-04T09:12:20.401Z,3.36
2022-12-04T09:13:20.421Z,3.40
2022-12-04T09:14:20.480Z,3.31
2022-12-04T09:15:20.472Z,3.34
2022-12-04T09:16:20.569Z,3.34
2022-12-04T09:17:20.565Z,3.36
2022-12-04T09:18:20.602Z,3.44
2022-12-04T09:19:20.688Z,3.47
2022-12-04T09:20:20.686Z,3.43
2022-12-04T09:21:21.462Z,3.36
2022-12-04T09:22:20.779Z,3.30
2022-12-04T09:23:21.458Z,3.40
2022-12-04T09:24:20.977Z,3.36
2022-12-04T09:25:20.897Z,3.50
2022-12-04T09:26:20.926Z,3.52
2022-12-04T09:27:20.955Z,3.49
2022-12-04T09:28:20.996Z,3.58
2022-12-04T09:29:21.061Z,3.47
2022-12-04T09:30:21.107Z,3.50
2022-12-04T09:31:21.245Z,3.49
2022-12-04T09:32:21.175Z,3.60
2022-12-04T09:33:21.207Z,3.58
2022-12-04T09:34:21.254Z,3.53
2022-12-04T09:35:21.296Z,3.71
2022-12-04T09:36:21.369Z,3.62
2022-12-04T09:37:21.366Z,3.61
2022-12-04T09:38:21.415Z,3.62
2022-12-04T09:39:21.460Z,3.68
2022-12-04T09:40:21.484Z,3.53
2022-12-04T09:41:21.557Z,3.54
2022-12-04T09:42:21.583Z,3.60
2022-12-04T09:43:21.628Z,3.58
2022-12-04T09:44:21.653Z,3.71
2022-12-04T09:45:21.702Z,3.67
2022-12-04T09:46:21.818Z,3.70
2022-12-04T09:47:21.817Z,3.65
2022-12-04T09:48:21.830Z,3.64
2022-12-04T09:49:21.856Z,3.61
2022-12-04T09:50:21.919Z,3.58
2022-12-04T09:51:21.972Z,3.52
2022-12-04T09:52:22.246Z,3.64
2022-12-04T09:53:22.034Z,3.67
2022-12-04T09:54:22.066Z,3.68
2022-12-04T09:55:22.114Z,3.64
2022-12-04T09:56:22.183Z,3.72
2022-12-04T09:57:22.193Z,3.75
2022-12-04T09:58:22.266Z,3.78
2022-12-04T09:59:22.293Z,3.71
2022-12-04T10:00:22.316Z,3.80
2022-12-04T10:01:22.399Z,3.75
2022-12-04T10:02:22.521Z,3.65
2022-12-04T10:03:22.687Z,3.64
2022-12-04T10:04:22.564Z,3.76
2022-12-04T10:05:22.529Z,3.75
2022-12-04T10:06:22.569Z,3.76
2022-12-04T10:07:22.619Z,3.80
2022-12-04T10:08:22.766Z,3.76
2022-12-04T10:09:22.705Z,3.79
2022-12-04T10:10:22.757Z,3.76
2022-12-04T10:11:23.956Z,3.79
2022-12-04T10:12:22.816Z,3.76
2022-12-04T10:13:22.882Z,3.83
2022-12-04T10:14:22.890Z,3.94
2022-12-04T10:15:22.947Z,3.88
2022-12-04T10:16:23.012Z,3.94
2022-12-04T10:17:25.485Z,3.89
2022-12-04T10:18:23.077Z,3.76
2022-12-04T10:19:23.098Z,3.88
2022-12-04T10:20:23.197Z,3.90
2022-12-04T10:21:23.211Z,3.79
2022-12-04T10:22:23.248Z,3.89
2022-12-04T10:23:23.269Z,3.85
2022-12-04T10:24:23.327Z,3.85
2022-12-04T10:25:23.359Z,3.92
2022-12-04T10:26:23.418Z,3.90
2022-12-04T10:27:23.441Z,3.88
2022-12-04T10:28:23.478Z,3.96
2022-12-04T10:29:23.527Z,3.92
2022-12-04T10:30:23.677Z,4.04
2022-12-04T10:31:23.695Z,4.10
2022-12-04T10:32:23.639Z,4.08
2022-12-04T10:33:23.690Z,3.98
2022-12-04T10:34:23.720Z,4.00
2022-12-04T10:35:23.775Z,4.01
2022-12-04T10:36:23.824Z,4.06
2022-12-04T10:37:23.877Z,4.06
2022-12-04T10:38:23.894Z,4.04
2022-12-04T10:39:23.964Z,4.00
2022-12-04T10:40:23.981Z,3.97
2022-12-04T10:41:24.015Z,3.98
2022-12-04T10:42:24.088Z,3.92
2022-12-04T10:43:24.957Z,4.00
2022-12-04T10:44:24.145Z,4.03
2022-12-04T10:45:24.217Z,4.03
2022-12-04T10:46:24.297Z,4.00
2022-12-04T10:47:24.277Z,4.04
2022-12-04T10:48:24.316Z,4.01
2022-12-04T10:49:24.354Z,3.98
2022-12-04T10:50:24.416Z,4.04
2022-12-04T10:51:24.457Z,4.00
2022-12-04T10:52:24.485Z,4.06
2022-12-04T10:53:24.533Z,4.07
2022-12-04T10:54:24.570Z,4.01
2022-12-04T10:55:24.625Z,4.00
2022-12-04T10:56:24.659Z,4.00
2022-12-04T10:57:24.694Z,3.88
2022-12-04T10:58:24.734Z,4.00
2022-12-04T10:59:24.797Z,3.98
2022-12-04T11:00:24.830Z,4.06
2022-12-04T11:01:24.950Z,4.06
2022-12-04T11:02:24.964Z,4.06
2022-12-04T11:03:25.034Z,3.98
2022-12-04T11:04:24.988Z,4.01
2022-12-04T11:05:25.040Z,4.04
2022-12-04T11:06:25.093Z,3.92
2022-12-04T11:07:25.111Z,3.98
2022-12-04T11:08:25.218Z,3.94
2022-12-04T11:09:25.199Z,3.86
2022-12-04T11:10:25.240Z,3.85
2022-12-04T11:11:25.308Z,3.85
2022-12-04T11:12:25.322Z,3.72
2022-12-04T11:13:25.368Z,3.79
2022-12-04T11:14:25.966Z,3.79
2022-12-04T11:15:25.436Z,3.72
2022-12-04T11:16:25.553Z,3.78
2022-12-04T11:17:25.526Z,3.68
2022-12-04T11:18:25.566Z,3.82
2022-12-04T11:19:25.613Z,3.82
2022-12-04T11:20:25.674Z,3.79
2022-12-04T11:21:25.694Z,3.75
2022-12-04T11:22:25.741Z,3.75
2022-12-04T11:23:25.804Z,3.78
2022-12-04T11:24:25.816Z,3.80
2022-12-04T11:25:25.866Z,3.76
2022-12-04T11:26:25.893Z,3.71
2022-12-04T11:27:25.934Z,3.70
2022-12-04T11:28:41.211Z,3.76
2022-12-04T11:29:26.019Z,3.72
2022-12-04T11:30:26.092Z,3.64
2022-12-04T11:31:26.193Z,3.64
2022-12-04T11:32:26.154Z,3.68
2022-12-04T11:33:26.192Z,3.78
2022-12-04T11:34:26.236Z,3.72
2022-12-04T11:35:26.302Z,3.78
2022-12-04T11:36:26.322Z,3.78
2022-12-04T11:37:26.365Z,3.76
2022-12-04T11:38:26.399Z,3.78
2022-12-04T11:39:26.468Z,3.75
2022-12-04T11:40:26.479Z,3.75
2022-12-04T11:41:26.556Z,3.72
2022-12-04T11:42:26.574Z,3.70
2022-12-04T11:43:26.608Z,3.72
2022-12-04T11:44:26.651Z,3.70
2022-12-04T11:45:27.469Z,3.75
2022-12-04T11:46:26.840Z,3.72
2022-12-04T11:47:26.787Z,3.78
2022-12-04T11:48:26.832Z,3.78
2022-12-04T11:49:26.892Z,3.78
2022-12-04T11:50:26.896Z,3.80
2022-12-04T11:51:26.969Z,3.80
2022-12-04T11:52:27.074Z,3.76
2022-12-04T11:53:27.019Z,3.76
2022-12-04T11:54:27.055Z,3.75
2022-12-04T11:55:29.211Z,3.78
2022-12-04T11:56:27.190Z,3.76
2022-12-04T11:57:27.219Z,3.80
2022-12-04T11:58:27.237Z,3.90
2022-12-04T11:59:27.270Z,3.86
2022-12-04T12:00:27.304Z,3.82
2022-12-04T12:01:27.377Z,3.94
2022-12-04T12:02:27.506Z,3.92
2022-12-04T12:03:27.611Z,3.90
2022-12-04T12:04:27.509Z,3.94
2022-12-04T12:05:28.460Z,3.92
2022-12-04T12:06:27.550Z,3.98
2022-12-04T12:07:27.637Z,3.88
2022-12-04T12:08:27.645Z,3.90
2022-12-04T12:09:27.705Z,3.98
2022-12-04T12:10:27.731Z,3.98
2022-12-04T12:11:27.764Z,4.01
2022-12-04T12:12:27.811Z,4.01
2022-12-04T12:13:27.877Z,3.90
2022-12-04T12:14:27.947Z,3.94
2022-12-04T12:15:28.478Z,3.96
2022-12-04T12:16:28.050Z,4.04
2022-12-04T12:26:56.548Z,3.98
2022-12-04T12:27:57.179Z,3.86
2022-12-04T12:28:56.568Z,3.98
2022-12-04T12:29:56.726Z,3.97
2022-12-04T12:30:59.010Z,3.86
2022-12-04T12:31:56.793Z,3.90
2022-12-04T12:33:03.787Z,3.90
2022-12-04T12:33:57.674Z,3.92
2022-12-04T12:34:57.680Z,3.90
2022-12-04T12:35:56.857Z,3.90
2022-12-04T12:37:00.924Z,4.01
2022-12-04T12:37:56.931Z,3.92
2022-12-04T12:38:56.969Z,3.97
2022-12-04T12:39:57.097Z,3.96
2022-12-04T12:40:57.684Z,3.89
2022-12-04T12:41:57.135Z,4.06
2022-12-04T12:42:58.705Z,3.98
2022-12-04T12:43:57.185Z,3.89
2022-12-04T12:44:57.227Z,3.96
2022-12-04T12:45:58.210Z,3.90
2022-12-04T12:46:57.325Z,3.88
2022-12-04T12:47:57.354Z,4.01
2022-12-04T12:48:58.692Z,3.97
2022-12-04T12:49:57.803Z,3.97
2022-12-04T12:51:22.259Z,3.90
2022-12-04T12:51:57.515Z,3.98
2022-12-04T12:52:58.219Z,3.97
2022-12-04T12:53:58.205Z,3.96
2022-12-04T12:54:57.711Z,4.01
2022-12-04T12:55:57.735Z,3.98
2022-12-04T12:56:57.744Z,3.94
2022-12-04T12:57:58.683Z,3.97
2022-12-04T12:58:58.710Z,4.03
2022-12-04T12:59:58.110Z,4.07
2022-12-04T13:00:57.923Z,3.92
2022-12-04T13:02:01.062Z,3.88
2022-12-04T13:02:58.517Z,3.92
2022-12-04T13:03:58.400Z,4.00
2022-12-04T13:04:58.918Z,3.92
2022-12-04T13:05:58.669Z,4.03
2022-12-04T13:06:58.218Z,4.03
2022-12-04T13:07:58.263Z,3.97
2022-12-04T13:08:59.213Z,3.94
2022-12-04T13:09:58.542Z,3.96
2022-12-04T13:10:59.170Z,3.90
2022-12-04T13:11:59.173Z,3.97
2022-12-04T13:12:58.413Z,4.00
2022-12-04T13:13:58.429Z,4.00
2022-12-04T13:14:59.189Z,4.01
2022-12-04T13:15:59.191Z,3.98
2022-12-04T13:16:58.652Z,3.98
2022-12-04T13:17:58.643Z,3.96
2022-12-04T13:18:59.171Z,3.92
2022-12-04T13:19:59.398Z,4.06
2022-12-04T13:20:58.813Z,3.98
2022-12-04T13:21:58.765Z,3.89
2022-12-04T13:22:59.683Z,4.01
2022-12-04T13:23:58.891Z,4.00
2022-12-04T13:24:59.689Z,4.06
2022-12-04T13:25:59.678Z,4.03
2022-12-04T13:26:58.961Z,4.01
2022-12-04T13:27:59.680Z,3.86
2022-12-04T13:28:59.120Z,4.03